sensor_id;sensor_type;location;lat;lon;timestamp;temperature;humidity
27741;DHT22;15134;48.768;9.184;2022-10-22T00:00:39;14.70;99.90
27741;DHT22;15134;48.768;9.184;2022-10-22T00:03:05;14.70;99.90
27741;DHT22;15134;48.768;9.184;2022-10-22T00:05:31;14.70;99.90
27741;DHT22;15134;48.768;9.184;2022-10-22T00:07:56;14.70;99.90
27741;DHT22;15134;48.768;9.184;2022-10-22T00:10:22;14.60;99.90
27741;DHT22;15134;48.768;9.184;2022-10-22T00:12:48;14.60;99.90
27741;DHT22;15134;48.768;9.184;2022-10-22T00:15:13;14.60;99.90
27741;DHT22;15134;48.768;9.184;2022-10-22T00:17:39;14.50;99.90
27741;DHT22;15134;48.768;9.184;2022-10-22T00:20:05;14.50;99.90
27741;DHT22;15134;48.768;9.184;2022-10-22T00:22:31;14.50;99.90
27741;DHT22;15134;48.768;9.184;2022-10-22T00:24:57;14.60;99.90
27741;DHT22;15134;48.768;9.184;2022-10-22T00:27:22;14.50;99.90
27741;DHT22;15134;48.768;9.184;2022-10-22T00:29:48;14.50;99.90
27741;DHT22;15134;48.768;9.184;2022-10-22T00:32:14;14.50;99.90
27741;DHT22;15134;48.768;9.184;2022-10-22T00:34:40;14.50;99.90
27741;DHT22;15134;48.768;9.184;2022-10-22T00:37:05;14.50;99.90
27741;DHT22;15134;48.768;9.184;2022-10-22T00:39:31;14.50;99.90
27741;DHT22;15134;48.768;9.184;2022-10-22T00:41:58;14.50;99.90
27741;DHT22;15134;48.768;9.184;2022-10-22T00:47:08;14.50;99.90
27741;DHT22;15134;48.768;9.184;2022-10-22T00:49:34;14.50;99.90
27741;DHT22;15134;48.768;9.184;2022-10-22T00:51:59;14.50;99.90
27741;DHT22;15134;48.768;9.184;2022-10-22T00:54:25;14.50;99.90
27741;DHT22;15134;48.768;9.184;2022-10-22T00:56:51;14.40;99.90
27741;DHT22;15134;48.768;9.184;2022-10-22T00:59:17;14.40;99.90
27741;DHT22;15134;48.768;9.184;2022-10-22T01:01:43;14.40;99.90
27741;DHT22;15134;48.768;9.184;2022-10-22T01:04:09;14.40;99.90
27741;DHT22;15134;48.768;9.184;2022-10-22T01:06:35;14.40;99.90
27741;DHT22;15134;48.768;9.184;2022-10-22T01:09:23;14.40;99.90
27741;DHT22;15134;48.768;9.184;2022-10-22T01:17:08;14.40;99.90
27741;DHT22;15134;48.768;9.184;2022-10-22T01:19:57;14.30;99.90
27741;DHT22;15134;48.768;9.184;2022-10-22T01:22:38;14.30;99.90
27741;DHT22;15134;48.768;9.184;2022-10-22T01:25:21;14.30;99.90
27741;DHT22;15134;48.768;9.184;2022-10-22T01:27:59;14.30;99.90
27741;DHT22;15134;48.768;9.184;2022-10-22T01:30:27;14.30;99.90
27741;DHT22;15134;48.768;9.184;2022-10-22T01:32:56;14.30;99.90
27741;DHT22;15134;48.768;9.184;2022-10-22T01:35:27;14.30;99.90
27741;DHT22;15134;48.768;9.184;2022-10-22T01:38:01;14.20;99.90
27741;DHT22;15134;48.768;9.184;2022-10-22T01:40:29;14.30;99.90
27741;DHT22;15134;48.768;9.184;2022-10-22T01:43:05;14.20;99.90
27741;DHT22;15134;48.768;9.184;2022-10-22T01:45:37;14.20;99.90
27741;DHT22;15134;48.768;9.184;2022-10-22T01:50:50;14.20;99.90
27741;DHT22;15134;48.768;9.184;2022-10-22T01:56:00;14.20;99.90
27741;DHT22;15134;48.768;9.184;2022-10-22T02:04:57;14.20;99.90
27741;DHT22;15134;48.768;9.184;2022-10-22T02:07:27;14.20;99.90
27741;DHT22;15134;48.768;9.184;2022-10-22T02:09:55;14.20;99.90
27741;DHT22;15134;48.768;9.184;2022-10-22T02:12:22;14.20;99.90
27741;DHT22;15134;48.768;9.184;2022-10-22T02:14:49;14.20;99.90
27741;DHT22;15134;48.768;9.184;2022-10-22T02:17:19;14.20;99.90
27741;DHT22;15134;48.768;9.184;2022-10-22T02:19:52;14.20;99.90
27741;DHT22;15134;48.768;9.184;2022-10-22T02:22:19;14.20;99.90
27741;DHT22;15134;48.768;9.184;2022-10-22T02:24:46;14.20;99.90
27741;DHT22;15134;48.768;9.184;2022-10-22T02:30:06;14.20;99.90
27741;DHT22;15134;48.768;9.184;2022-10-22T02:32:53;14.20;99.90
27741;DHT22;15134;48.768;9.184;2022-10-22T02:35:23;14.20;99.90
27741;DHT22;15134;48.768;9.184;2022-10-22T02:37:51;14.10;99.90
27741;DHT22;15134;48.768;9.184;2022-10-22T02:40:19;14.10;99.90
27741;DHT22;15134;48.768;9.184;2022-10-22T02:42:46;14.10;99.90
27741;DHT22;15134;48.768;9.184;2022-10-22T02:45:13;14.20;99.90
27741;DHT22;15134;48.768;9.184;2022-10-22T02:47:38;14.20;99.90
27741;DHT22;15134;48.768;9.184;2022-10-22T02:50:05;14.20;99.90
27741;DHT22;15134;48.768;9.184;2022-10-22T02:52:31;14.20;99.90
27741;DHT22;15134;48.768;9.184;2022-10-22T02:54:56;14.20;99.90
27741;DHT22;15134;48.768;9.184;2022-10-22T02:57:22;14.20;99.90
27741;DHT22;15134;48.768;9.184;2022-10-22T02:59:48;14.20;99.90
27741;DHT22;15134;48.768;9.184;2022-10-22T03:02:13;14.30;99.90
27741;DHT22;15134;48.768;9.184;2022-10-22T03:04:39;14.30;99.90
27741;DHT22;15134;48.768;9.184;2022-10-22T03:07:05;14.30;99.90
27741;DHT22;15134;48.768;9.184;2022-10-22T03:09:30;14.30;99.90
27741;DHT22;15134;48.768;9.184;2022-10-22T03:11:56;14.30;99.90
27741;DHT22;15134;48.768;9.184;2022-10-22T03:14:22;14.30;99.90
27741;DHT22;15134;48.768;9.184;2022-10-22T03:16:47;14.30;99.90
27741;DHT22;15134;48.768;9.184;2022-10-22T03:19:13;14.30;99.90
27741;DHT22;15134;48.768;9.184;2022-10-22T03:24:20;14.30;99.90
27741;DHT22;15134;48.768;9.184;2022-10-22T03:26:49;14.30;99.90
27741;DHT22;15134;48.768;9.184;2022-10-22T03:29:16;14.30;99.90
27741;DHT22;15134;48.768;9.184;2022-10-22T03:31:42;14.30;99.90
27741;DHT22;15134;48.768;9.184;2022-10-22T03:34:07;14.30;99.90
27741;DHT22;15134;48.768;9.184;2022-10-22T03:36:33;14.30;99.90
27741;DHT22;15134;48.768;9.184;2022-10-22T03:39:00;14.40;99.90
27741;DHT22;15134;48.768;9.184;2022-10-22T03:41:27;14.40;99.90
27741;DHT22;15134;48.768;9.184;2022-10-22T03:43:53;14.40;99.90
27741;DHT22;15134;48.768;9.184;2022-10-22T03:46:19;14.40;99.90
27741;DHT22;15134;48.768;9.184;2022-10-22T03:48:45;14.40;99.90
27741;DHT22;15134;48.768;9.184;2022-10-22T03:51:11;14.40;99.90
27741;DHT22;15134;48.768;9.184;2022-10-22T03:53:37;14.40;99.90
27741;DHT22;15134;48.768;9.184;2022-10-22T03:56:07;14.40;99.90
27741;DHT22;15134;48.768;9.184;2022-10-22T03:58:34;14.40;99.90
27741;DHT22;15134;48.768;9.184;2022-10-22T04:01:07;14.40;99.90
27741;DHT22;15134;48.768;9.184;2022-10-22T04:03:33;14.40;99.90
27741;DHT22;15134;48.768;9.184;2022-10-22T04:06:10;14.30;99.90
27741;DHT22;15134;48.768;9.184;2022-10-22T04:08:39;14.30;99.90
27741;DHT22;15134;48.768;9.184;2022-10-22T04:11:05;14.30;99.90
27741;DHT22;15134;48.768;9.184;2022-10-22T04:13:31;14.30;99.90
27741;DHT22;15134;48.768;9.184;2022-10-22T04:18:33;14.20;99.90
27741;DHT22;15134;48.768;9.184;2022-10-22T04:20:59;14.20;99.90
27741;DHT22;15134;48.768;9.184;2022-10-22T04:23:24;14.10;99.90
27741;DHT22;15134;48.768;9.184;2022-10-22T04:26:00;14.10;99.90
27741;DHT22;15134;48.768;9.184;2022-10-22T04:28:26;14.10;99.90
27741;DHT22;15134;48.768;9.184;2022-10-22T04:30:52;14.00;99.90
27741;DHT22;15134;48.768;9.184;2022-10-22T04:33:17;14.00;99.90
27741;DHT22;15134;48.768;9.184;2022-10-22T04:35:43;14.00;99.90
27741;DHT22;15134;48.768;9.184;2022-10-22T04:38:09;13.90;99.90
27741;DHT22;15134;48.768;9.184;2022-10-22T04:40:35;13.90;99.90
27741;DHT22;15134;48.768;9.184;2022-10-22T04:43:00;13.90;99.90
27741;DHT22;15134;48.768;9.184;2022-10-22T04:45:26;13.90;99.90
27741;DHT22;15134;48.768;9.184;2022-10-22T04:47:52;13.90;99.90
27741;DHT22;15134;48.768;9.184;2022-10-22T04:50:17;13.90;99.90
27741;DHT22;15134;48.768;9.184;2022-10-22T04:52:43;13.90;99.90
27741;DHT22;15134;48.768;9.184;2022-10-22T04:55:09;13.90;99.90
27741;DHT22;15134;48.768;9.184;2022-10-22T04:57:34;13.90;99.90
27741;DHT22;15134;48.768;9.184;2022-10-22T05:00:00;13.90;99.90
27741;DHT22;15134;48.768;9.184;2022-10-22T05:02:26;13.90;99.90
27741;DHT22;15134;48.768;9.184;2022-10-22T05:04:51;14.00;99.90
27741;DHT22;15134;48.768;9.184;2022-10-22T05:07:17;14.00;99.90
27741;DHT22;15134;48.768;9.184;2022-10-22T05:09:43;14.00;99.90
27741;DHT22;15134;48.768;9.184;2022-10-22T05:12:09;14.00;99.90
27741;DHT22;15134;48.768;9.184;2022-10-22T05:14:34;14.00;99.90
27741;DHT22;15134;48.768;9.184;2022-10-22T05:17:00;14.00;99.90
27741;DHT22;15134;48.768;9.184;2022-10-22T05:19:28;14.00;99.90
27741;DHT22;15134;48.768;9.184;2022-10-22T05:21:57;14.00;99.90
27741;DHT22;15134;48.768;9.184;2022-10-22T05:24:23;14.00;99.90
27741;DHT22;15134;48.768;9.184;2022-10-22T05:26:50;14.00;99.90
27741;DHT22;15134;48.768;9.184;2022-10-22T05:29:16;14.00;99.90
27741;DHT22;15134;48.768;9.184;2022-10-22T05:31:41;14.00;99.90
27741;DHT22;15134;48.768;9.184;2022-10-22T05:34:07;14.00;99.90
27741;DHT22;15134;48.768;9.184;2022-10-22T05:36:33;14.00;99.90
27741;DHT22;15134;48.768;9.184;2022-10-22T05:38:59;14.00;99.90
27741;DHT22;15134;48.768;9.184;2022-10-22T05:41:26;14.00;99.90
27741;DHT22;15134;48.768;9.184;2022-10-22T05:43:56;13.90;99.90
27741;DHT22;15134;48.768;9.184;2022-10-22T05:46:25;14.00;99.90
27741;DHT22;15134;48.768;9.184;2022-10-22T05:48:58;14.00;99.90
27741;DHT22;15134;48.768;9.184;2022-10-22T05:51:26;14.00;99.90
27741;DHT22;15134;48.768;9.184;2022-10-22T05:53:56;14.10;99.90
27741;DHT22;15134;48.768;9.184;2022-10-22T05:56:23;14.10;99.90
27741;DHT22;15134;48.768;9.184;2022-10-22T05:58:49;14.10;99.90
27741;DHT22;15134;48.768;9.184;2022-10-22T06:01:21;14.10;99.90
27741;DHT22;15134;48.768;9.184;2022-10-22T06:03:48;14.20;99.90
27741;DHT22;15134;48.768;9.184;2022-10-22T06:08:46;14.20;99.90
27741;DHT22;15134;48.768;9.184;2022-10-22T06:11:13;14.20;99.90
27741;DHT22;15134;48.768;9.184;2022-10-22T06:13:39;14.30;99.90
27741;DHT22;15134;48.768;9.184;2022-10-22T06:16:04;14.30;99.90
27741;DHT22;15134;48.768;9.184;2022-10-22T06:18:30;14.30;99.90
27741;DHT22;15134;48.768;9.184;2022-10-22T06:21:03;14.30;99.90
27741;DHT22;15134;48.768;9.184;2022-10-22T06:23:29;14.30;99.90
27741;DHT22;15134;48.768;9.184;2022-10-22T06:25:56;14.30;99.90
27741;DHT22;15134;48.768;9.184;2022-10-22T06:28:22;14.30;99.90
27741;DHT22;15134;48.768;9.184;2022-10-22T06:30:48;14.30;99.90
27741;DHT22;15134;48.768;9.184;2022-10-22T06:33:13;14.30;99.90
27741;DHT22;15134;48.768;9.184;2022-10-22T06:35:39;14.30;99.90
27741;DHT22;15134;48.768;9.184;2022-10-22T06:38:05;14.30;99.90
27741;DHT22;15134;48.768;9.184;2022-10-22T06:40:32;14.40;99.90
27741;DHT22;15134;48.768;9.184;2022-10-22T06:42:58;14.40;99.90
27741;DHT22;15134;48.768;9.184;2022-10-22T06:45:24;14.40;99.90
27741;DHT22;15134;48.768;9.184;2022-10-22T06:47:50;14.40;99.90
27741;DHT22;15134;48.768;9.184;2022-10-22T06:50:16;14.50;99.90
27741;DHT22;15134;48.768;9.184;2022-10-22T06:52:42;14.50;99.90
27741;DHT22;15134;48.768;9.184;2022-10-22T06:55:08;14.50;99.90
27741;DHT22;15134;48.768;9.184;2022-10-22T06:57:34;14.60;99.90
27741;DHT22;15134;48.768;9.184;2022-10-22T06:59:59;14.60;99.90
27741;DHT22;15134;48.768;9.184;2022-10-22T07:02:25;14.60;99.90
27741;DHT22;15134;48.768;9.184;2022-10-22T07:04:51;14.70;99.90
27741;DHT22;15134;48.768;9.184;2022-10-22T07:07:17;14.70;99.90
27741;DHT22;15134;48.768;9.184;2022-10-22T07:09:42;14.70;99.90
27741;DHT22;15134;48.768;9.184;2022-10-22T07:12:11;14.80;99.90
27741;DHT22;15134;48.768;9.184;2022-10-22T07:14:38;14.80;99.90
27741;DHT22;15134;48.768;9.184;2022-10-22T07:17:03;14.80;99.90
27741;DHT22;15134;48.768;9.184;2022-10-22T07:19:29;14.90;99.90
27741;DHT22;15134;48.768;9.184;2022-10-22T07:21:56;14.90;99.90
27741;DHT22;15134;48.768;9.184;2022-10-22T07:24:21;14.90;99.90
27741;DHT22;15134;48.768;9.184;2022-10-22T07:26:47;15.00;99.90
27741;DHT22;15134;48.768;9.184;2022-10-22T07:29:13;15.00;99.90
27741;DHT22;15134;48.768;9.184;2022-10-22T07:31:40;15.00;99.90
27741;DHT22;15134;48.768;9.184;2022-10-22T07:34:06;15.00;99.90
27741;DHT22;15134;48.768;9.184;2022-10-22T07:36:32;15.00;99.90
27741;DHT22;15134;48.768;9.184;2022-10-22T07:38:58;15.00;99.90
27741;DHT22;15134;48.768;9.184;2022-10-22T07:41:25;15.00;99.90
27741;DHT22;15134;48.768;9.184;2022-10-22T07:43:51;15.00;99.90
27741;DHT22;15134;48.768;9.184;2022-10-22T07:46:17;15.10;99.90
27741;DHT22;15134;48.768;9.184;2022-10-22T07:48:43;15.10;99.90
27741;DHT22;15134;48.768;9.184;2022-10-22T07:51:08;15.10;99.90
27741;DHT22;15134;48.768;9.184;2022-10-22T07:53:34;15.10;99.90
27741;DHT22;15134;48.768;9.184;2022-10-22T07:56:00;15.10;99.90
27741;DHT22;15134;48.768;9.184;2022-10-22T07:58:26;15.20;99.90
27741;DHT22;15134;48.768;9.184;2022-10-22T08:00:56;15.20;99.90
27741;DHT22;15134;48.768;9.184;2022-10-22T08:03:22;15.30;99.90
27741;DHT22;15134;48.768;9.184;2022-10-22T08:05:48;15.30;99.90
27741;DHT22;15134;48.768;9.184;2022-10-22T08:08:15;15.40;99.90
27741;DHT22;15134;48.768;9.184;2022-10-22T08:10:41;15.40;99.90
27741;DHT22;15134;48.768;9.184;2022-10-22T08:13:07;15.40;99.90
27741;DHT22;15134;48.768;9.184;2022-10-22T08:15:33;15.60;99.90
27741;DHT22;15134;48.768;9.184;2022-10-22T08:17:59;15.80;99.90
27741;DHT22;15134;48.768;9.184;2022-10-22T08:20:25;15.90;99.90
27741;DHT22;15134;48.768;9.184;2022-10-22T08:22:50;16.00;99.90
27741;DHT22;15134;48.768;9.184;2022-10-22T08:25:16;16.10;99.90
27741;DHT22;15134;48.768;9.184;2022-10-22T08:27:43;16.10;99.90
27741;DHT22;15134;48.768;9.184;2022-10-22T08:30:10;16.00;99.90
27741;DHT22;15134;48.768;9.184;2022-10-22T08:32:36;15.90;99.90
27741;DHT22;15134;48.768;9.184;2022-10-22T08:37:45;15.80;99.90
27741;DHT22;15134;48.768;9.184;2022-10-22T08:50:57;17.10;99.90
27741;DHT22;15134;48.768;9.184;2022-10-22T08:53:50;17.40;99.90
27741;DHT22;15134;48.768;9.184;2022-10-22T08:56:17;17.60;99.90
27741;DHT22;15134;48.768;9.184;2022-10-22T08:58:55;17.60;99.90
27741;DHT22;15134;48.768;9.184;2022-10-22T09:01:32;17.60;99.90
27741;DHT22;15134;48.768;9.184;2022-10-22T09:04:14;17.80;99.90
27741;DHT22;15134;48.768;9.184;2022-10-22T09:06:42;17.80;99.90
27741;DHT22;15134;48.768;9.184;2022-10-22T09:09:14;17.90;99.90
27741;DHT22;15134;48.768;9.184;2022-10-22T09:11:45;17.80;99.90
27741;DHT22;15134;48.768;9.184;2022-10-22T09:14:18;17.90;99.90
27741;DHT22;15134;48.768;9.184;2022-10-22T09:22:51;18.20;99.90
27741;DHT22;15134;48.768;9.184;2022-10-22T09:25:25;18.30;99.90
27741;DHT22;15134;48.768;9.184;2022-10-22T09:27:52;18.50;99.90
27741;DHT22;15134;48.768;9.184;2022-10-22T09:30:33;18.60;99.90
27741;DHT22;15134;48.768;9.184;2022-10-22T09:38:30;18.90;99.90
27741;DHT22;15134;48.768;9.184;2022-10-22T09:40:58;19.10;99.90
27741;DHT22;15134;48.768;9.184;2022-10-22T09:43:30;19.20;99.90
27741;DHT22;15134;48.768;9.184;2022-10-22T09:46:02;19.30;99.90
27741;DHT22;15134;48.768;9.184;2022-10-22T09:48:34;19.40;99.90
27741;DHT22;15134;48.768;9.184;2022-10-22T09:54:16;19.50;99.90
27741;DHT22;15134;48.768;9.184;2022-10-22T09:56:56;19.60;99.90
27741;DHT22;15134;48.768;9.184;2022-10-22T09:59:28;19.70;99.90
27741;DHT22;15134;48.768;9.184;2022-10-22T10:02:21;19.70;99.90
27741;DHT22;15134;48.768;9.184;2022-10-22T10:04:50;19.80;99.90
27741;DHT22;15134;48.768;9.184;2022-10-22T10:07:18;19.80;99.90
27741;DHT22;15134;48.768;9.184;2022-10-22T10:09:44;20.00;99.90
27741;DHT22;15134;48.768;9.184;2022-10-22T10:15:12;20.20;99.90
27741;DHT22;15134;48.768;9.184;2022-10-22T10:17:57;20.30;99.90
27741;DHT22;15134;48.768;9.184;2022-10-22T10:26:19;20.70;99.90
27741;DHT22;15134;48.768;9.184;2022-10-22T10:37:45;21.00;99.90
27741;DHT22;15134;48.768;9.184;2022-10-22T10:48:35;21.50;99.90
27741;DHT22;15134;48.768;9.184;2022-10-22T11:06:56;21.60;99.90
27741;DHT22;15134;48.768;9.184;2022-10-22T11:09:29;21.80;99.90
27741;DHT22;15134;48.768;9.184;2022-10-22T11:12:01;22.00;99.90
27741;DHT22;15134;48.768;9.184;2022-10-22T11:14:30;22.10;99.90
27741;DHT22;15134;48.768;9.184;2022-10-22T11:19:37;22.10;99.90
27741;DHT22;15134;48.768;9.184;2022-10-22T11:24:52;22.00;99.90
27741;DHT22;15134;48.768;9.184;2022-10-22T11:27:40;21.80;99.90
27741;DHT22;15134;48.768;9.184;2022-10-22T11:30:16;21.70;99.90
27741;DHT22;15134;48.768;9.184;2022-10-22T11:32:45;21.60;99.90
27741;DHT22;15134;48.768;9.184;2022-10-22T11:35:26;21.50;99.90
27741;DHT22;15134;48.768;9.184;2022-10-22T11:37:55;21.50;99.90
27741;DHT22;15134;48.768;9.184;2022-10-22T11:40:43;21.50;99.90
27741;DHT22;15134;48.768;9.184;2022-10-22T11:43:34;21.40;99.90
27741;DHT22;15134;48.768;9.184;2022-10-22T11:48:43;21.40;99.90
27741;DHT22;15134;48.768;9.184;2022-10-22T11:51:31;21.60;99.90
27741;DHT22;15134;48.768;9.184;2022-10-22T11:54:06;21.70;99.90
27741;DHT22;15134;48.768;9.184;2022-10-22T11:56:46;21.80;99.90
27741;DHT22;15134;48.768;9.184;2022-10-22T11:59:37;21.90;99.90
27741;DHT22;15134;48.768;9.184;2022-10-22T12:02:43;22.00;99.90
27741;DHT22;15134;48.768;9.184;2022-10-22T12:07:58;21.50;99.90
27741;DHT22;15134;48.768;9.184;2022-10-22T12:10:47;21.40;99.90
27741;DHT22;15134;48.768;9.184;2022-10-22T12:16:10;21.50;99.90
27741;DHT22;15134;48.768;9.184;2022-10-22T12:18:39;21.60;99.90
27741;DHT22;15134;48.768;9.184;2022-10-22T12:21:12;21.70;99.90
27741;DHT22;15134;48.768;9.184;2022-10-22T12:23:39;21.90;99.90
27741;DHT22;15134;48.768;9.184;2022-10-22T12:26:05;22.10;99.90
27741;DHT22;15134;48.768;9.184;2022-10-22T12:28:40;22.20;99.90
27741;DHT22;15134;48.768;9.184;2022-10-22T12:31:13;22.20;99.90
27741;DHT22;15134;48.768;9.184;2022-10-22T12:33:42;22.20;99.90
27741;DHT22;15134;48.768;9.184;2022-10-22T12:36:17;21.80;99.90
27741;DHT22;15134;48.768;9.184;2022-10-22T12:38:46;21.60;99.90
27741;DHT22;15134;48.768;9.184;2022-10-22T12:41:13;21.40;99.90
27741;DHT22;15134;48.768;9.184;2022-10-22T12:43:38;21.30;99.90
27741;DHT22;15134;48.768;9.184;2022-10-22T12:46:13;21.10;99.90
27741;DHT22;15134;48.768;9.184;2022-10-22T12:48:43;20.90;99.90
27741;DHT22;15134;48.768;9.184;2022-10-22T12:51:16;20.80;99.90
27741;DHT22;15134;48.768;9.184;2022-10-22T12:53:49;20.80;99.90
27741;DHT22;15134;48.768;9.184;2022-10-22T12:56:24;20.80;99.90
27741;DHT22;15134;48.768;9.184;2022-10-22T12:58:59;20.70;99.90
27741;DHT22;15134;48.768;9.184;2022-10-22T13:01:28;20.60;99.90
27741;DHT22;15134;48.768;9.184;2022-10-22T13:12:13;20.50;99.90
27741;DHT22;15134;48.768;9.184;2022-10-22T13:14:43;20.50;99.90
27741;DHT22;15134;48.768;9.184;2022-10-22T13:17:36;20.50;99.90
27741;DHT22;15134;48.768;9.184;2022-10-22T13:20:14;20.50;99.90
27741;DHT22;15134;48.768;9.184;2022-10-22T13:22:54;20.50;99.90
27741;DHT22;15134;48.768;9.184;2022-10-22T13:25:27;20.40;99.90
27741;DHT22;15134;48.768;9.184;2022-10-22T13:28:02;20.40;99.90
27741;DHT22;15134;48.768;9.184;2022-10-22T13:30:38;20.30;99.90
27741;DHT22;15134;48.768;9.184;2022-10-22T13:33:16;20.30;99.90
27741;DHT22;15134;48.768;9.184;2022-10-22T13:35:51;20.30;99.90
27741;DHT22;15134;48.768;9.184;2022-10-22T13:38:19;20.30;99.90
27741;DHT22;15134;48.768;9.184;2022-10-22T13:40:46;20.20;99.90
27741;DHT22;15134;48.768;9.184;2022-10-22T13:43:12;20.20;99.90
27741;DHT22;15134;48.768;9.184;2022-10-22T13:45:39;20.10;99.90
27741;DHT22;15134;48.768;9.184;2022-10-22T13:48:05;20.10;99.90
27741;DHT22;15134;48.768;9.184;2022-10-22T13:50:31;20.10;99.90
27741;DHT22;15134;48.768;9.184;2022-10-22T13:52:57;20.10;99.90
27741;DHT22;15134;48.768;9.184;2022-10-22T13:55:30;20.10;99.90
27741;DHT22;15134;48.768;9.184;2022-10-22T13:58:05;20.10;99.90
27741;DHT22;15134;48.768;9.184;2022-10-22T14:00:32;20.10;99.90
27741;DHT22;15134;48.768;9.184;2022-10-22T14:02:58;20.00;99.90
27741;DHT22;15134;48.768;9.184;2022-10-22T14:05:24;20.00;99.90
27741;DHT22;15134;48.768;9.184;2022-10-22T14:07:50;19.90;99.90
27741;DHT22;15134;48.768;9.184;2022-10-22T14:10:18;19.80;99.90
27741;DHT22;15134;48.768;9.184;2022-10-22T14:12:47;19.70;99.90
27741;DHT22;15134;48.768;9.184;2022-10-22T14:15:16;19.70;99.90
27741;DHT22;15134;48.768;9.184;2022-10-22T14:17:45;19.60;99.90
27741;DHT22;15134;48.768;9.184;2022-10-22T14:20:19;19.50;99.90
27741;DHT22;15134;48.768;9.184;2022-10-22T14:22:47;19.40;99.90
27741;DHT22;15134;48.768;9.184;2022-10-22T14:25:22;19.40;99.90
27741;DHT22;15134;48.768;9.184;2022-10-22T14:27:48;19.30;99.90
27741;DHT22;15134;48.768;9.184;2022-10-22T14:30:20;19.30;99.90
27741;DHT22;15134;48.768;9.184;2022-10-22T14:32:46;19.20;99.90
27741;DHT22;15134;48.768;9.184;2022-10-22T14:35:16;19.10;99.90
27741;DHT22;15134;48.768;9.184;2022-10-22T14:37:43;19.10;99.90
27741;DHT22;15134;48.768;9.184;2022-10-22T14:40:12;19.00;99.90
27741;DHT22;15134;48.768;9.184;2022-10-22T14:42:41;18.90;99.90
27741;DHT22;15134;48.768;9.184;2022-10-22T14:45:21;18.90;99.90
27741;DHT22;15134;48.768;9.184;2022-10-22T14:47:48;18.80;99.90
27741;DHT22;15134;48.768;9.184;2022-10-22T14:50:18;18.80;99.90
27741;DHT22;15134;48.768;9.184;2022-10-22T14:52:44;18.80;99.90
27741;DHT22;15134;48.768;9.184;2022-10-22T14:55:11;18.70;99.90
27741;DHT22;15134;48.768;9.184;2022-10-22T14:57:38;18.70;99.90
27741;DHT22;15134;48.768;9.184;2022-10-22T15:00:06;18.70;99.90
27741;DHT22;15134;48.768;9.184;2022-10-22T15:02:32;18.70;99.90
27741;DHT22;15134;48.768;9.184;2022-10-22T15:07:34;18.70;99.90
27741;DHT22;15134;48.768;9.184;2022-10-22T15:09:59;18.70;99.90
27741;DHT22;15134;48.768;9.184;2022-10-22T15:12:25;18.70;99.90
27741;DHT22;15134;48.768;9.184;2022-10-22T15:14:51;18.70;99.90
27741;DHT22;15134;48.768;9.184;2022-10-22T15:17:17;18.60;99.90
27741;DHT22;15134;48.768;9.184;2022-10-22T15:19:45;18.60;99.90
27741;DHT22;15134;48.768;9.184;2022-10-22T15:22:11;18.60;99.90
27741;DHT22;15134;48.768;9.184;2022-10-22T15:24:37;18.60;99.90
27741;DHT22;15134;48.768;9.184;2022-10-22T15:27:03;18.50;99.90
27741;DHT22;15134;48.768;9.184;2022-10-22T15:29:30;18.50;99.90
27741;DHT22;15134;48.768;9.184;2022-10-22T15:31:58;18.50;99.90
27741;DHT22;15134;48.768;9.184;2022-10-22T15:34:29;18.40;99.90
27741;DHT22;15134;48.768;9.184;2022-10-22T15:36:56;18.40;99.90
27741;DHT22;15134;48.768;9.184;2022-10-22T15:39:23;18.40;99.90
27741;DHT22;15134;48.768;9.184;2022-10-22T15:41:50;18.30;99.90
27741;DHT22;15134;48.768;9.184;2022-10-22T15:44:28;18.30;99.90
27741;DHT22;15134;48.768;9.184;2022-10-22T15:46:57;18.30;99.90
27741;DHT22;15134;48.768;9.184;2022-10-22T15:49:26;18.20;99.90
27741;DHT22;15134;48.768;9.184;2022-10-22T15:52:00;18.20;99.90
27741;DHT22;15134;48.768;9.184;2022-10-22T16:20:14;17.50;99.90
27741;DHT22;15134;48.768;9.184;2022-10-22T16:22:40;17.50;99.90
27741;DHT22;15134;48.768;9.184;2022-10-22T16:25:12;17.40;99.90
27741;DHT22;15134;48.768;9.184;2022-10-22T16:27:38;17.40;99.90
27741;DHT22;15134;48.768;9.184;2022-10-22T16:30:04;17.30;99.90
27741;DHT22;15134;48.768;9.184;2022-10-22T16:32:40;17.30;99.90
27741;DHT22;15134;48.768;9.184;2022-10-22T16:35:14;17.30;99.90
27741;DHT22;15134;48.768;9.184;2022-10-22T16:37:40;17.20;99.90
27741;DHT22;15134;48.768;9.184;2022-10-22T16:40:06;17.10;99.90
27741;DHT22;15134;48.768;9.184;2022-10-22T16:42:36;17.10;99.90
27741;DHT22;15134;48.768;9.184;2022-10-22T16:45:02;17.00;99.90
27741;DHT22;15134;48.768;9.184;2022-10-22T16:47:28;17.00;99.90
27741;DHT22;15134;48.768;9.184;2022-10-22T16:49:54;17.00;99.90
27741;DHT22;15134;48.768;9.184;2022-10-22T16:52:20;16.90;99.90
27741;DHT22;15134;48.768;9.184;2022-10-22T16:54:46;16.90;99.90
27741;DHT22;15134;48.768;9.184;2022-10-22T16:57:12;16.80;99.90
27741;DHT22;15134;48.768;9.184;2022-10-22T16:59:38;16.80;99.90
27741;DHT22;15134;48.768;9.184;2022-10-22T17:02:09;16.80;99.90
27741;DHT22;15134;48.768;9.184;2022-10-22T17:04:36;16.80;99.90
27741;DHT22;15134;48.768;9.184;2022-10-22T17:07:02;16.80;99.90
27741;DHT22;15134;48.768;9.184;2022-10-22T17:09:27;16.80;99.90
27741;DHT22;15134;48.768;9.184;2022-10-22T17:11:53;16.80;99.90
27741;DHT22;15134;48.768;9.184;2022-10-22T17:14:19;16.70;99.90
27741;DHT22;15134;48.768;9.184;2022-10-22T17:16:45;16.70;99.90
27741;DHT22;15134;48.768;9.184;2022-10-22T17:19:15;16.70;99.90
27741;DHT22;15134;48.768;9.184;2022-10-22T17:21:41;16.70;99.90
27741;DHT22;15134;48.768;9.184;2022-10-22T17:24:06;16.70;99.90
27741;DHT22;15134;48.768;9.184;2022-10-22T17:26:32;16.60;99.90
27741;DHT22;15134;48.768;9.184;2022-10-22T17:28:59;16.60;99.90
27741;DHT22;15134;48.768;9.184;2022-10-22T17:31:31;16.60;99.90
27741;DHT22;15134;48.768;9.184;2022-10-22T17:33:57;16.50;99.90
27741;DHT22;15134;48.768;9.184;2022-10-22T17:36:25;16.50;99.90
27741;DHT22;15134;48.768;9.184;2022-10-22T17:38:53;16.40;99.90
27741;DHT22;15134;48.768;9.184;2022-10-22T17:41:25;16.40;99.90
27741;DHT22;15134;48.768;9.184;2022-10-22T17:43:56;16.40;99.90
27741;DHT22;15134;48.768;9.184;2022-10-22T17:46:26;16.30;99.90
27741;DHT22;15134;48.768;9.184;2022-10-22T17:49:03;16.30;99.90
27741;DHT22;15134;48.768;9.184;2022-10-22T17:51:36;16.30;99.90
27741;DHT22;15134;48.768;9.184;2022-10-22T17:54:02;16.20;99.90
27741;DHT22;15134;48.768;9.184;2022-10-22T17:56:28;16.30;99.90
27741;DHT22;15134;48.768;9.184;2022-10-22T17:59:06;16.20;99.90
27741;DHT22;15134;48.768;9.184;2022-10-22T18:01:34;16.20;99.90
27741;DHT22;15134;48.768;9.184;2022-10-22T18:04:07;16.20;99.90
27741;DHT22;15134;48.768;9.184;2022-10-22T18:06:33;16.10;99.90
27741;DHT22;15134;48.768;9.184;2022-10-22T18:09:05;16.10;99.90
27741;DHT22;15134;48.768;9.184;2022-10-22T18:11:32;16.00;99.90